sensor_id;sensor_type;location;lat;lon;timestamp;P1;durP1;ratioP1;P2;durP2;ratioP2
51260;SDS011;61705;46.228;24.812;2023-05-24T00:00:02;10.20;;;5.63;;
51260;SDS011;61705;46.228;24.812;2023-05-24T00:02:31;11.55;;;5.93;;
51260;SDS011;61705;46.228;24.812;2023-05-24T00:04:58;18.33;;;7.18;;
51260;SDS011;61705;46.228;24.812;2023-05-24T00:07:26;13.15;;;6.32;;
51260;SDS011;61705;46.228;24.812;2023-05-24T00:09:53;16.20;;;7.60;;
51260;SDS011;61705;46.228;24.812;2023-05-24T00:12:20;12.57;;;6.35;;
51260;SDS011;61705;46.228;24.812;2023-05-24T00:14:46;12.38;;;6.93;;
51260;SDS011;61705;46.228;24.812;2023-05-24T00:17:13;14.45;;;6.47;;
51260;SDS011;61705;46.228;24.812;2023-05-24T00:19:40;15.90;;;6.97;;
51260;SDS011;61705;46.228;24.812;2023-05-24T00:22:06;15.88;;;7.10;;
51260;SDS011;61705;46.228;24.812;2023-05-24T00:24:33;11.70;;;6.15;;
51260;SDS011;61705;46.228;24.812;2023-05-24T00:27:00;13.23;;;6.80;;
51260;SDS011;61705;46.228;24.812;2023-05-24T00:29:26;21.65;;;7.90;;
51260;SDS011;61705;46.228;24.812;2023-05-24T00:31:57;12.43;;;5.88;;
51260;SDS011;61705;46.228;24.812;2023-05-24T00:34:24;14.20;;;5.95;;
51260;SDS011;61705;46.228;24.812;2023-05-24T00:36:50;15.95;;;6.47;;
51260;SDS011;61705;46.228;24.812;2023-05-24T00:39:17;19.65;;;7.07;;
51260;SDS011;61705;46.228;24.812;2023-05-24T00:41:44;11.52;;;6.43;;
51260;SDS011;61705;46.228;24.812;2023-05-24T00:44:10;15.25;;;6.18;;
51260;SDS011;61705;46.228;24.812;2023-05-24T00:46:37;12.63;;;6.43;;
51260;SDS011;61705;46.228;24.812;2023-05-24T00:49:05;11.50;;;6.50;;
51260;SDS011;61705;46.228;24.812;2023-05-24T00:51:32;10.90;;;6.50;;
51260;SDS011;61705;46.228;24.812;2023-05-24T00:54:00;13.25;;;6.55;;
51260;SDS011;61705;46.228;24.812;2023-05-24T00:56:27;12.77;;;6.40;;
51260;SDS011;61705;46.228;24.812;2023-05-24T00:58:54;15.63;;;6.95;;
51260;SDS011;61705;46.228;24.812;2023-05-24T01:01:21;13.90;;;6.60;;
51260;SDS011;61705;46.228;24.812;2023-05-24T01:03:52;12.32;;;6.63;;
51260;SDS011;61705;46.228;24.812;2023-05-24T01:06:19;13.15;;;6.57;;
51260;SDS011;61705;46.228;24.812;2023-05-24T01:08:53;12.80;;;7.00;;
51260;SDS011;61705;46.228;24.812;2023-05-24T01:20:03;12.05;;;6.75;;
51260;SDS011;61705;46.228;24.812;2023-05-24T01:28:15;13.20;;;6.30;;
51260;SDS011;61705;46.228;24.812;2023-05-24T01:30:43;10.18;;;6.13;;
51260;SDS011;61705;46.228;24.812;2023-05-24T01:33:11;12.60;;;6.93;;
51260;SDS011;61705;46.228;24.812;2023-05-24T01:35:38;12.50;;;6.63;;
51260;SDS011;61705;46.228;24.812;2023-05-24T01:38:07;13.32;;;6.55;;
51260;SDS011;61705;46.228;24.812;2023-05-24T01:40:37;14.10;;;7.38;;
51260;SDS011;61705;46.228;24.812;2023-05-24T01:43:11;12.40;;;6.75;;
51260;SDS011;61705;46.228;24.812;2023-05-24T01:46:10;13.55;;;6.63;;
51260;SDS011;61705;46.228;24.812;2023-05-24T01:48:47;14.10;;;6.68;;
51260;SDS011;61705;46.228;24.812;2023-05-24T01:51:28;13.82;;;7.65;;
51260;SDS011;61705;46.228;24.812;2023-05-24T01:53:59;12.88;;;7.00;;
51260;SDS011;61705;46.228;24.812;2023-05-24T01:56:29;11.57;;;6.82;;
51260;SDS011;61705;46.228;24.812;2023-05-24T01:58:57;12.98;;;6.93;;
51260;SDS011;61705;46.228;24.812;2023-05-24T02:01:26;14.48;;;7.35;;
51260;SDS011;61705;46.228;24.812;2023-05-24T02:03:53;13.60;;;7.38;;
51260;SDS011;61705;46.228;24.812;2023-05-24T02:06:21;13.13;;;6.68;;
51260;SDS011;61705;46.228;24.812;2023-05-24T02:08:47;14.95;;;6.45;;
51260;SDS011;61705;46.228;24.812;2023-05-24T02:11:14;16.02;;;7.00;;
51260;SDS011;61705;46.228;24.812;2023-05-24T02:13:41;16.52;;;6.90;;
51260;SDS011;61705;46.228;24.812;2023-05-24T02:16:07;15.02;;;6.45;;
51260;SDS011;61705;46.228;24.812;2023-05-24T02:18:36;13.27;;;6.93;;
51260;SDS011;61705;46.228;24.812;2023-05-24T02:21:02;18.80;;;7.38;;
51260;SDS011;61705;46.228;24.812;2023-05-24T02:23:31;20.30;;;8.65;;
51260;SDS011;61705;46.228;24.812;2023-05-24T02:25:58;23.48;;;9.55;;
51260;SDS011;61705;46.228;24.812;2023-05-24T02:28:25;14.30;;;6.90;;
51260;SDS011;61705;46.228;24.812;2023-05-24T02:30:52;16.20;;;7.43;;
51260;SDS011;61705;46.228;24.812;2023-05-24T02:33:18;37.08;;;10.23;;
51260;SDS011;61705;46.228;24.812;2023-05-24T02:35:46;19.30;;;8.27;;
51260;SDS011;61705;46.228;24.812;2023-05-24T02:38:13;28.90;;;8.52;;
51260;SDS011;61705;46.228;24.812;2023-05-24T02:40:40;13.35;;;7.88;;
51260;SDS011;61705;46.228;24.812;2023-05-24T02:43:07;39.35;;;10.50;;
51260;SDS011;61705;46.228;24.812;2023-05-24T02:45:35;19.70;;;9.40;;
51260;SDS011;61705;46.228;24.812;2023-05-24T02:48:02;14.52;;;7.32;;
51260;SDS011;61705;46.228;24.812;2023-05-24T02:50:29;12.48;;;7.18;;
51260;SDS011;61705;46.228;24.812;2023-05-24T02:52:56;19.33;;;7.93;;
51260;SDS011;61705;46.228;24.812;2023-05-24T02:55:23;14.80;;;7.43;;
51260;SDS011;61705;46.228;24.812;2023-05-24T02:57:49;19.67;;;7.13;;
51260;SDS011;61705;46.228;24.812;2023-05-24T03:00:16;19.98;;;6.75;;
51260;SDS011;61705;46.228;24.812;2023-05-24T03:02:45;13.95;;;7.55;;
51260;SDS011;61705;46.228;24.812;2023-05-24T03:05:18;16.50;;;7.35;;
51260;SDS011;61705;46.228;24.812;2023-05-24T03:07:45;14.45;;;6.57;;
51260;SDS011;61705;46.228;24.812;2023-05-24T03:10:12;17.55;;;7.03;;
51260;SDS011;61705;46.228;24.812;2023-05-24T03:12:41;20.33;;;7.00;;
51260;SDS011;61705;46.228;24.812;2023-05-24T03:15:07;16.67;;;6.78;;
51260;SDS011;61705;46.228;24.812;2023-05-24T03:17:35;24.10;;;7.70;;
51260;SDS011;61705;46.228;24.812;2023-05-24T03:20:01;22.48;;;7.25;;
51260;SDS011;61705;46.228;24.812;2023-05-24T03:22:31;28.48;;;8.82;;
51260;SDS011;61705;46.228;24.812;2023-05-24T03:24:58;17.52;;;7.00;;
51260;SDS011;61705;46.228;24.812;2023-05-24T03:27:24;18.02;;;7.07;;
51260;SDS011;61705;46.228;24.812;2023-05-24T03:29:53;21.38;;;9.52;;
51260;SDS011;61705;46.228;24.812;2023-05-24T03:32:20;17.77;;;8.07;;
51260;SDS011;61705;46.228;24.812;2023-05-24T03:34:47;17.13;;;7.70;;
51260;SDS011;61705;46.228;24.812;2023-05-24T03:37:14;28.90;;;8.18;;
51260;SDS011;61705;46.228;24.812;2023-05-24T03:39:43;18.00;;;7.85;;
51260;SDS011;61705;46.228;24.812;2023-05-24T03:42:10;15.70;;;7.15;;
51260;SDS011;61705;46.228;24.812;2023-05-24T03:44:36;18.05;;;6.88;;
51260;SDS011;61705;46.228;24.812;2023-05-24T03:47:07;24.00;;;7.63;;
51260;SDS011;61705;46.228;24.812;2023-05-24T03:49:36;21.13;;;8.60;;
51260;SDS011;61705;46.228;24.812;2023-05-24T03:52:03;14.90;;;7.35;;
51260;SDS011;61705;46.228;24.812;2023-05-24T03:54:30;16.10;;;6.97;;
51260;SDS011;61705;46.228;24.812;2023-05-24T03:56:57;17.48;;;8.82;;
51260;SDS011;61705;46.228;24.812;2023-05-24T03:59:24;13.50;;;7.40;;
51260;SDS011;61705;46.228;24.812;2023-05-24T04:01:50;19.27;;;7.43;;
51260;SDS011;61705;46.228;24.812;2023-05-24T04:04:17;16.13;;;6.80;;
51260;SDS011;61705;46.228;24.812;2023-05-24T04:06:44;20.13;;;7.72;;
51260;SDS011;61705;46.228;24.812;2023-05-24T04:09:10;13.02;;;7.05;;
51260;SDS011;61705;46.228;24.812;2023-05-24T04:11:37;17.52;;;6.60;;
51260;SDS011;61705;46.228;24.812;2023-05-24T04:14:04;10.07;;;6.10;;
51260;SDS011;61705;46.228;24.812;2023-05-24T04:16:30;10.75;;;6.28;;
51260;SDS011;61705;46.228;24.812;2023-05-24T04:18:59;13.60;;;7.15;;
51260;SDS011;61705;46.228;24.812;2023-05-24T04:21:27;13.20;;;7.10;;
51260;SDS011;61705;46.228;24.812;2023-05-24T04:23:54;19.38;;;8.30;;
51260;SDS011;61705;46.228;24.812;2023-05-24T04:26:27;15.13;;;6.95;;
51260;SDS011;61705;46.228;24.812;2023-05-24T04:28:53;12.63;;;7.28;;
51260;SDS011;61705;46.228;24.812;2023-05-24T04:31:20;15.55;;;6.82;;
51260;SDS011;61705;46.228;24.812;2023-05-24T04:33:51;13.38;;;6.43;;
51260;SDS011;61705;46.228;24.812;2023-05-24T04:36:18;18.65;;;7.55;;
51260;SDS011;61705;46.228;24.812;2023-05-24T04:38:45;16.08;;;7.72;;
51260;SDS011;61705;46.228;24.812;2023-05-24T04:41:12;21.67;;;7.57;;
51260;SDS011;61705;46.228;24.812;2023-05-24T04:43:41;18.30;;;7.32;;
51260;SDS011;61705;46.228;24.812;2023-05-24T04:46:08;43.55;;;8.85;;
51260;SDS011;61705;46.228;24.812;2023-05-24T04:48:36;25.08;;;8.43;;
51260;SDS011;61705;46.228;24.812;2023-05-24T04:51:07;19.88;;;7.60;;
51260;SDS011;61705;46.228;24.812;2023-05-24T04:53:33;16.05;;;7.63;;
51260;SDS011;61705;46.228;24.812;2023-05-24T04:56:00;15.50;;;6.57;;
51260;SDS011;61705;46.228;24.812;2023-05-24T04:58:27;18.20;;;7.63;;
51260;SDS011;61705;46.228;24.812;2023-05-24T05:00:54;16.27;;;7.85;;
51260;SDS011;61705;46.228;24.812;2023-05-24T05:03:21;17.10;;;7.55;;
51260;SDS011;61705;46.228;24.812;2023-05-24T05:05:50;16.70;;;6.90;;
51260;SDS011;61705;46.228;24.812;2023-05-24T05:08:17;15.57;;;7.40;;
51260;SDS011;61705;46.228;24.812;2023-05-24T05:10:45;16.77;;;7.75;;
51260;SDS011;61705;46.228;24.812;2023-05-24T05:13:13;11.40;;;7.25;;
51260;SDS011;61705;46.228;24.812;2023-05-24T05:15:40;14.60;;;7.75;;
51260;SDS011;61705;46.228;24.812;2023-05-24T05:18:08;17.38;;;8.85;;
51260;SDS011;61705;46.228;24.812;2023-05-24T05:20:34;15.93;;;7.60;;
51260;SDS011;61705;46.228;24.812;2023-05-24T05:23:01;18.25;;;8.38;;
51260;SDS011;61705;46.228;24.812;2023-05-24T05:25:28;18.83;;;8.32;;
51260;SDS011;61705;46.228;24.812;2023-05-24T05:27:56;19.25;;;8.63;;
51260;SDS011;61705;46.228;24.812;2023-05-24T05:30:24;18.20;;;7.68;;
51260;SDS011;61705;46.228;24.812;2023-05-24T05:32:51;16.85;;;7.63;;
51260;SDS011;61705;46.228;24.812;2023-05-24T05:35:18;15.90;;;7.50;;
51260;SDS011;61705;46.228;24.812;2023-05-24T05:37:44;22.42;;;8.93;;
51260;SDS011;61705;46.228;24.812;2023-05-24T05:40:11;15.35;;;7.07;;
51260;SDS011;61705;46.228;24.812;2023-05-24T05:42:38;10.85;;;6.88;;
51260;SDS011;61705;46.228;24.812;2023-05-24T05:45:06;26.33;;;8.23;;
51260;SDS011;61705;46.228;24.812;2023-05-24T05:47:33;17.08;;;7.70;;
51260;SDS011;61705;46.228;24.812;2023-05-24T05:50:00;22.13;;;9.60;;
51260;SDS011;61705;46.228;24.812;2023-05-24T05:52:27;13.43;;;8.18;;
51260;SDS011;61705;46.228;24.812;2023-05-24T05:54:54;18.92;;;8.27;;
51260;SDS011;61705;46.228;24.812;2023-05-24T05:57:20;21.30;;;9.52;;
51260;SDS011;61705;46.228;24.812;2023-05-24T05:59:49;21.63;;;8.95;;
51260;SDS011;61705;46.228;24.812;2023-05-24T06:02:16;21.45;;;8.50;;
51260;SDS011;61705;46.228;24.812;2023-05-24T06:04:48;22.00;;;8.23;;
51260;SDS011;61705;46.228;24.812;2023-05-24T06:07:15;23.70;;;8.25;;
51260;SDS011;61705;46.228;24.812;2023-05-24T06:09:42;18.23;;;7.88;;
51260;SDS011;61705;46.228;24.812;2023-05-24T06:12:08;18.35;;;7.18;;
51260;SDS011;61705;46.228;24.812;2023-05-24T06:14:35;14.77;;;6.68;;
51260;SDS011;61705;46.228;24.812;2023-05-24T06:17:04;12.60;;;5.40;;
51260;SDS011;61705;46.228;24.812;2023-05-24T06:19:31;10.40;;;5.38;;
51260;SDS011;61705;46.228;24.812;2023-05-24T06:21:58;21.42;;;7.43;;
51260;SDS011;61705;46.228;24.812;2023-05-24T06:24:25;16.45;;;6.32;;
51260;SDS011;61705;46.228;24.812;2023-05-24T06:26:56;15.07;;;6.53;;
51260;SDS011;61705;46.228;24.812;2023-05-24T06:29:23;26.05;;;7.30;;
51260;SDS011;61705;46.228;24.812;2023-05-24T06:31:50;14.88;;;5.93;;
51260;SDS011;61705;46.228;24.812;2023-05-24T06:34:18;14.48;;;6.63;;
51260;SDS011;61705;46.228;24.812;2023-05-24T06:36:47;16.15;;;6.80;;
51260;SDS011;61705;46.228;24.812;2023-05-24T06:39:17;16.42;;;7.15;;
51260;SDS011;61705;46.228;24.812;2023-05-24T06:41:44;18.15;;;6.85;;
51260;SDS011;61705;46.228;24.812;2023-05-24T06:44:12;20.83;;;6.80;;
51260;SDS011;61705;46.228;24.812;2023-05-24T06:46:39;18.40;;;7.30;;
51260;SDS011;61705;46.228;24.812;2023-05-24T06:49:06;37.38;;;21.98;;
51260;SDS011;61705;46.228;24.812;2023-05-24T06:51:33;39.25;;;11.00;;
51260;SDS011;61705;46.228;24.812;2023-05-24T06:54:01;16.17;;;6.20;;
51260;SDS011;61705;46.228;24.812;2023-05-24T06:56:27;11.95;;;6.13;;
51260;SDS011;61705;46.228;24.812;2023-05-24T06:58:55;10.45;;;6.13;;
51260;SDS011;61705;46.228;24.812;2023-05-24T07:01:22;11.63;;;5.35;;
51260;SDS011;61705;46.228;24.812;2023-05-24T07:03:49;13.73;;;6.30;;
51260;SDS011;61705;46.228;24.812;2023-05-24T07:06:17;17.08;;;10.82;;
51260;SDS011;61705;46.228;24.812;2023-05-24T07:08:43;27.63;;;15.38;;
51260;SDS011;61705;46.228;24.812;2023-05-24T07:11:10;16.70;;;6.97;;
51260;SDS011;61705;46.228;24.812;2023-05-24T07:13:37;11.88;;;5.65;;
51260;SDS011;61705;46.228;24.812;2023-05-24T07:16:04;14.18;;;7.07;;
51260;SDS011;61705;46.228;24.812;2023-05-24T07:18:31;14.13;;;5.93;;
51260;SDS011;61705;46.228;24.812;2023-05-24T07:20:58;10.00;;;5.82;;
51260;SDS011;61705;46.228;24.812;2023-05-24T07:23:26;7.90;;;5.28;;
51260;SDS011;61705;46.228;24.812;2023-05-24T07:25:53;13.55;;;6.97;;
51260;SDS011;61705;46.228;24.812;2023-05-24T07:28:20;11.70;;;6.10;;
51260;SDS011;61705;46.228;24.812;2023-05-24T07:30:47;12.07;;;5.32;;
51260;SDS011;61705;46.228;24.812;2023-05-24T07:33:14;11.82;;;5.63;;
51260;SDS011;61705;46.228;24.812;2023-05-24T07:35:42;10.80;;;5.72;;
51260;SDS011;61705;46.228;24.812;2023-05-24T07:38:11;12.23;;;5.97;;
51260;SDS011;61705;46.228;24.812;2023-05-24T07:40:37;12.68;;;5.72;;
51260;SDS011;61705;46.228;24.812;2023-05-24T07:43:04;10.65;;;5.72;;
51260;SDS011;61705;46.228;24.812;2023-05-24T07:45:31;11.98;;;6.32;;
51260;SDS011;61705;46.228;24.812;2023-05-24T07:47:58;11.30;;;6.38;;
51260;SDS011;61705;46.228;24.812;2023-05-24T07:50:24;9.43;;;5.50;;
51260;SDS011;61705;46.228;24.812;2023-05-24T07:52:51;13.95;;;6.03;;
51260;SDS011;61705;46.228;24.812;2023-05-24T07:55:18;15.57;;;8.10;;
51260;SDS011;61705;46.228;24.812;2023-05-24T07:57:45;10.63;;;5.45;;
51260;SDS011;61705;46.228;24.812;2023-05-24T08:00:12;10.43;;;5.10;;
51260;SDS011;61705;46.228;24.812;2023-05-24T08:02:42;12.00;;;5.45;;
51260;SDS011;61705;46.228;24.812;2023-05-24T08:05:11;10.40;;;5.75;;
51260;SDS011;61705;46.228;24.812;2023-05-24T08:07:42;12.30;;;5.90;;
51260;SDS011;61705;46.228;24.812;2023-05-24T08:10:09;10.18;;;5.63;;
51260;SDS011;61705;46.228;24.812;2023-05-24T08:12:39;10.80;;;5.57;;
51260;SDS011;61705;46.228;24.812;2023-05-24T08:15:06;17.20;;;6.53;;
51260;SDS011;61705;46.228;24.812;2023-05-24T08:17:33;9.85;;;5.57;;
51260;SDS011;61705;46.228;24.812;2023-05-24T08:20:01;11.68;;;5.10;;
51260;SDS011;61705;46.228;24.812;2023-05-24T08:22:31;12.40;;;6.32;;
51260;SDS011;61705;46.228;24.812;2023-05-24T08:24:59;9.63;;;5.45;;
51260;SDS011;61705;46.228;24.812;2023-05-24T08:27:26;20.90;;;6.53;;
51260;SDS011;61705;46.228;24.812;2023-05-24T08:29:55;13.23;;;5.30;;
51260;SDS011;61705;46.228;24.812;2023-05-24T08:32:22;18.23;;;7.10;;
51260;SDS011;61705;46.228;24.812;2023-05-24T08:34:49;19.65;;;8.65;;
51260;SDS011;61705;46.228;24.812;2023-05-24T08:37:16;10.82;;;4.70;;
51260;SDS011;61705;46.228;24.812;2023-05-24T08:39:45;9.82;;;4.75;;
51260;SDS011;61705;46.228;24.812;2023-05-24T08:42:12;10.68;;;5.25;;
51260;SDS011;61705;46.228;24.812;2023-05-24T08:44:46;10.65;;;5.00;;
51260;SDS011;61705;46.228;24.812;2023-05-24T08:47:14;13.45;;;5.15;;
51260;SDS011;61705;46.228;24.812;2023-05-24T08:49:41;17.42;;;7.72;;
51260;SDS011;61705;46.228;24.812;2023-05-24T08:52:09;22.00;;;5.30;;
51260;SDS011;61705;46.228;24.812;2023-05-24T08:54:38;12.55;;;4.75;;
51260;SDS011;61705;46.228;24.812;2023-05-24T08:57:06;20.60;;;6.47;;
51260;SDS011;61705;46.228;24.812;2023-05-24T08:59:33;24.83;;;6.45;;
51260;SDS011;61705;46.228;24.812;2023-05-24T09:02:00;15.63;;;4.88;;
51260;SDS011;61705;46.228;24.812;2023-05-24T09:04:29;11.35;;;5.07;;
51260;SDS011;61705;46.228;24.812;2023-05-24T09:06:57;11.90;;;4.57;;
51260;SDS011;61705;46.228;24.812;2023-05-24T09:09:25;15.30;;;4.88;;
51260;SDS011;61705;46.228;24.812;2023-05-24T09:11:53;11.48;;;4.38;;
51260;SDS011;61705;46.228;24.812;2023-05-24T09:14:24;12.35;;;4.80;;
51260;SDS011;61705;46.228;24.812;2023-05-24T09:16:51;10.20;;;5.35;;
51260;SDS011;61705;46.228;24.812;2023-05-24T09:19:18;10.63;;;4.25;;
51260;SDS011;61705;46.228;24.812;2023-05-24T09:21:45;11.02;;;4.00;;
51260;SDS011;61705;46.228;24.812;2023-05-24T09:24:13;8.35;;;3.80;;
51260;SDS011;61705;46.228;24.812;2023-05-24T09:26:41;12.52;;;4.70;;
51260;SDS011;61705;46.228;24.812;2023-05-24T09:29:07;17.38;;;6.10;;
51260;SDS011;61705;46.228;24.812;2023-05-24T09:31:35;11.18;;;4.00;;
51260;SDS011;61705;46.228;24.812;2023-05-24T09:34:02;10.13;;;4.68;;
51260;SDS011;61705;46.228;24.812;2023-05-24T09:36:29;9.63;;;4.22;;
51260;SDS011;61705;46.228;24.812;2023-05-24T09:39:05;10.23;;;4.28;;
51260;SDS011;61705;46.228;24.812;2023-05-24T09:41:35;8.10;;;3.88;;
51260;SDS011;61705;46.228;24.812;2023-05-24T09:44:02;12.18;;;5.10;;
51260;SDS011;61705;46.228;24.812;2023-05-24T09:46:36;7.40;;;3.45;;
51260;SDS011;61705;46.228;24.812;2023-05-24T09:49:04;10.57;;;4.35;;
51260;SDS011;61705;46.228;24.812;2023-05-24T09:51:35;9.77;;;3.97;;
51260;SDS011;61705;46.228;24.812;2023-05-24T09:54:03;14.55;;;4.75;;
51260;SDS011;61705;46.228;24.812;2023-05-24T09:56:33;6.13;;;3.50;;
51260;SDS011;61705;46.228;24.812;2023-05-24T09:59:07;12.38;;;4.13;;
51260;SDS011;61705;46.228;24.812;2023-05-24T10:01:35;17.83;;;4.63;;
51260;SDS011;61705;46.228;24.812;2023-05-24T10:04:06;6.80;;;3.40;;
51260;SDS011;61705;46.228;24.812;2023-05-24T10:06:35;5.85;;;3.47;;
51260;SDS011;61705;46.228;24.812;2023-05-24T10:09:03;8.95;;;3.90;;
51260;SDS011;61705;46.228;24.812;2023-05-24T10:11:35;7.28;;;3.70;;
51260;SDS011;61705;46.228;24.812;2023-05-24T10:14:03;7.78;;;3.92;;
51260;SDS011;61705;46.228;24.812;2023-05-24T10:16:32;6.28;;;3.30;;
51260;SDS011;61705;46.228;24.812;2023-05-24T10:18:59;9.50;;;3.60;;
51260;SDS011;61705;46.228;24.812;2023-05-24T10:21:25;11.20;;;4.28;;
51260;SDS011;61705;46.228;24.812;2023-05-24T10:23:56;11.88;;;3.92;;
51260;SDS011;61705;46.228;24.812;2023-05-24T10:26:25;10.68;;;3.65;;
51260;SDS011;61705;46.228;24.812;2023-05-24T10:28:56;9.02;;;3.90;;
51260;SDS011;61705;46.228;24.812;2023-05-24T10:31:29;7.22;;;3.92;;
51260;SDS011;61705;46.228;24.812;2023-05-24T10:34:00;9.50;;;4.50;;
51260;SDS011;61705;46.228;24.812;2023-05-24T10:36:34;10.30;;;3.50;;
51260;SDS011;61705;46.228;24.812;2023-05-24T10:39:02;10.68;;;3.42;;
51260;SDS011;61705;46.228;24.812;2023-05-24T10:41:29;10.18;;;3.55;;
51260;SDS011;61705;46.228;24.812;2023-05-24T10:44:09;9.30;;;4.10;;
51260;SDS011;61705;46.228;24.812;2023-05-24T10:49:31;6.63;;;3.72;;
51260;SDS011;61705;46.228;24.812;2023-05-24T10:52:16;7.25;;;3.47;;
51260;SDS011;61705;46.228;24.812;2023-05-24T10:55:02;9.55;;;4.00;;
51260;SDS011;61705;46.228;24.812;2023-05-24T10:57:30;18.10;;;6.03;;
51260;SDS011;61705;46.228;24.812;2023-05-24T11:03:05;6.05;;;2.83;;
51260;SDS011;61705;46.228;24.812;2023-05-24T11:05:35;11.93;;;3.95;;
51260;SDS011;61705;46.228;24.812;2023-05-24T11:11:28;7.55;;;3.55;;
51260;SDS011;61705;46.228;24.812;2023-05-24T11:13:56;8.57;;;4.05;;
51260;SDS011;61705;46.228;24.812;2023-05-24T11:16:33;7.72;;;3.67;;
51260;SDS011;61705;46.228;24.812;2023-05-24T11:19:11;13.18;;;4.22;;
51260;SDS011;61705;46.228;24.812;2023-05-24T11:21:46;7.28;;;4.00;;
51260;SDS011;61705;46.228;24.812;2023-05-24T11:24:24;8.75;;;4.18;;
51260;SDS011;61705;46.228;24.812;2023-05-24T11:26:52;23.88;;;5.97;;
51260;SDS011;61705;46.228;24.812;2023-05-24T11:29:19;7.50;;;3.47;;
51260;SDS011;61705;46.228;24.812;2023-05-24T11:31:52;26.20;;;10.13;;
51260;SDS011;61705;46.228;24.812;2023-05-24T11:34:20;15.32;;;4.43;;
51260;SDS011;61705;46.228;24.812;2023-05-24T11:36:47;9.95;;;4.40;;
51260;SDS011;61705;46.228;24.812;2023-05-24T11:39:14;8.63;;;3.85;;
51260;SDS011;61705;46.228;24.812;2023-05-24T11:41:41;8.88;;;3.78;;
51260;SDS011;61705;46.228;24.812;2023-05-24T11:44:10;7.47;;;3.55;;
51260;SDS011;61705;46.228;24.812;2023-05-24T11:46:40;9.23;;;3.72;;
51260;SDS011;61705;46.228;24.812;2023-05-24T11:49:12;7.60;;;3.30;;
51260;SDS011;61705;46.228;24.812;2023-05-24T11:51:40;7.85;;;4.05;;
51260;SDS011;61705;46.228;24.812;2023-05-24T11:54:09;8.63;;;3.92;;
51260;SDS011;61705;46.228;24.812;2023-05-24T11:56:37;8.60;;;3.75;;
51260;SDS011;61705;46.228;24.812;2023-05-24T12:01:45;7.85;;;3.38;;
51260;SDS011;61705;46.228;24.812;2023-05-24T12:04:12;13.20;;;4.20;;
51260;SDS011;61705;46.228;24.812;2023-05-24T12:06:40;7.22;;;3.10;;
51260;SDS011;61705;46.228;24.812;2023-05-24T12:09:08;9.35;;;3.53;;
51260;SDS011;61705;46.228;24.812;2023-05-24T12:11:39;5.82;;;3.15;;
51260;SDS011;61705;46.228;24.812;2023-05-24T12:14:14;9.45;;;4.00;;
51260;SDS011;61705;46.228;24.812;2023-05-24T12:16:42;14.55;;;6.20;;
51260;SDS011;61705;46.228;24.812;2023-05-24T12:19:16;8.50;;;4.05;;
51260;SDS011;61705;46.228;24.812;2023-05-24T12:21:58;6.75;;;3.60;;
51260;SDS011;61705;46.228;24.812;2023-05-24T12:24:25;8.18;;;3.30;;
51260;SDS011;61705;46.228;24.812;2023-05-24T12:26:57;6.97;;;3.40;;
51260;SDS011;61705;46.228;24.812;2023-05-24T12:29:36;7.32;;;4.05;;
51260;SDS011;61705;46.228;24.812;2023-05-24T12:32:09;6.82;;;3.33;;
51260;SDS011;61705;46.228;24.812;2023-05-24T12:34:41;7.97;;;3.55;;
51260;SDS011;61705;46.228;24.812;2023-05-24T12:37:12;14.68;;;3.60;;
51260;SDS011;61705;46.228;24.812;2023-05-24T12:39:42;5.10;;;3.17;;
51260;SDS011;61705;46.228;24.812;2023-05-24T12:42:10;24.60;;;15.82;;
51260;SDS011;61705;46.228;24.812;2023-05-24T12:44:41;40.58;;;18.52;;
51260;SDS011;61705;46.228;24.812;2023-05-24T12:47:08;15.95;;;5.22;;
51260;SDS011;61705;46.228;24.812;2023-05-24T12:49:35;4.68;;;2.88;;
51260;SDS011;61705;46.228;24.812;2023-05-24T12:52:01;6.28;;;3.88;;
51260;SDS011;61705;46.228;24.812;2023-05-24T12:54:28;17.83;;;3.88;;
51260;SDS011;61705;46.228;24.812;2023-05-24T12:56:55;6.88;;;3.03;;
51260;SDS011;61705;46.228;24.812;2023-05-24T12:59:26;8.85;;;3.58;;
51260;SDS011;61705;46.228;24.812;2023-05-24T13:01:54;6.15;;;3.42;;
51260;SDS011;61705;46.228;24.812;2023-05-24T13:04:21;8.50;;;3.38;;
51260;SDS011;61705;46.228;24.812;2023-05-24T13:06:49;8.75;;;3.30;;
51260;SDS011;61705;46.228;24.812;2023-05-24T13:09:16;6.20;;;3.40;;
51260;SDS011;61705;46.228;24.812;2023-05-24T13:11:49;4.57;;;3.07;;
51260;SDS011;61705;46.228;24.812;2023-05-24T13:14:15;7.43;;;3.05;;
51260;SDS011;61705;46.228;24.812;2023-05-24T13:16:43;6.65;;;3.17;;
51260;SDS011;61705;46.228;24.812;2023-05-24T13:19:10;8.35;;;3.60;;
51260;SDS011;61705;46.228;24.812;2023-05-24T13:21:37;7.40;;;3.13;;
51260;SDS011;61705;46.228;24.812;2023-05-24T13:24:05;9.02;;;3.50;;
51260;SDS011;61705;46.228;24.812;2023-05-24T13:26:33;15.55;;;4.55;;
51260;SDS011;61705;46.228;24.812;2023-05-24T13:29:03;6.88;;;3.35;;
51260;SDS011;61705;46.228;24.812;2023-05-24T13:31:34;8.05;;;3.92;;
51260;SDS011;61705;46.228;24.812;2023-05-24T13:34:04;6.88;;;3.15;;
51260;SDS011;61705;46.228;24.812;2023-05-24T13:36:31;15.77;;;4.35;;
51260;SDS011;61705;46.228;24.812;2023-05-24T13:38:58;10.23;;;3.33;;
51260;SDS011;61705;46.228;24.812;2023-05-24T13:41:28;8.80;;;3.95;;
51260;SDS011;61705;46.228;24.812;2023-05-24T13:43:55;12.52;;;4.50;;
51260;SDS011;61705;46.228;24.812;2023-05-24T13:46:22;7.18;;;3.67;;
51260;SDS011;61705;46.228;24.812;2023-05-24T13:48:49;10.18;;;4.30;;
51260;SDS011;61705;46.228;24.812;2023-05-24T13:51:18;7.18;;;3.60;;
51260;SDS011;61705;46.228;24.812;2023-05-24T13:53:46;10.85;;;3.95;;
51260;SDS011;61705;46.228;24.812;2023-05-24T13:56:13;14.93;;;4.60;;
51260;SDS011;61705;46.228;24.812;2023-05-24T13:58:43;8.60;;;3.70;;
51260;SDS011;61705;46.228;24.812;2023-05-24T14:01:11;8.25;;;3.40;;
51260;SDS011;61705;46.228;24.812;2023-05-24T14:03:37;14.73;;;3.92;;
51260;SDS011;61705;46.228;24.812;2023-05-24T14:06:06;8.75;;;3.47;;
51260;SDS011;61705;46.228;24.812;2023-05-24T14:08:34;7.28;;;3.17;;
51260;SDS011;61705;46.228;24.812;2023-05-24T14:11:00;17.75;;;3.55;;
51260;SDS011;61705;46.228;24.812;2023-05-24T14:13:27;7.78;;;3.50;;
51260;SDS011;61705;46.228;24.812;2023-05-24T14:16:14;13.70;;;3.75;;
51260;SDS011;61705;46.228;24.812;2023-05-24T14:18:41;4.35;;;2.90;;
51260;SDS011;61705;46.228;24.812;2023-05-24T14:21:08;40.70;;;6.32;;
51260;SDS011;61705;46.228;24.812;2023-05-24T14:23:35;14.82;;;3.97;;
51260;SDS011;61705;46.228;24.812;2023-05-24T14:26:02;16.30;;;4.22;;
51260;SDS011;61705;46.228;24.812;2023-05-24T14:28:29;15.80;;;4.85;;
51260;SDS011;61705;46.228;24.812;2023-05-24T14:30:56;30.52;;;5.45;;
51260;SDS011;61705;46.228;24.812;2023-05-24T14:33:22;13.38;;;4.68;;
51260;SDS011;61705;46.228;24.812;2023-05-24T14:35:49;18.65;;;4.47;;
51260;SDS011;61705;46.228;24.812;2023-05-24T14:38:17;9.23;;;3.50;;
51260;SDS011;61705;46.228;24.812;2023-05-24T14:40:43;15.18;;;4.05;;
51260;SDS011;61705;46.228;24.812;2023-05-24T14:43:14;9.45;;;4.30;;
51260;SDS011;61705;46.228;24.812;2023-05-24T14:45:44;11.20;;;4.03;;
51260;SDS011;61705;46.228;24.812;2023-05-24T14:48:11;8.63;;;3.65;;
51260;SDS011;61705;46.228;24.812;2023-05-24T14:50:38;13.52;;;4.50;;
51260;SDS011;61705;46.228;24.812;2023-05-24T14:53:05;8.95;;;3.85;;
51260;SDS011;61705;46.228;24.812;2023-05-24T14:55:36;12.48;;;3.78;;